sensor_id;sensor_type;location;lat;lon;timestamp;P1;durP1;ratioP1;P2;durP2;ratioP2
68523;SDS011;55524;51.380;13.372;2022-07-01T06:39:35;16.95;;;10.23;;
68523;SDS011;55524;51.380;13.372;2022-07-01T06:42:01;13.52;;;9.40;;
68523;SDS011;55524;51.380;13.372;2022-07-01T06:44:27;12.48;;;9.40;;
68523;SDS011;55524;51.380;13.372;2022-07-01T06:46:54;12.88;;;10.35;;
68523;SDS011;55524;51.380;13.372;2022-07-01T06:49:20;12.93;;;9.70;;
68523;SDS011;55524;51.380;13.372;2022-07-01T06:51:46;16.88;;;10.77;;
68523;SDS011;55524;51.380;13.372;2022-07-01T06:54:12;13.15;;;10.80;;
68523;SDS011;55524;51.380;13.372;2022-07-01T06:56:38;13.15;;;10.90;;
68523;SDS011;55524;51.380;13.372;2022-07-01T06:59:05;16.42;;;11.05;;
68523;SDS011;55524;51.380;13.372;2022-07-01T07:01:31;14.52;;;10.57;;
68523;SDS011;55524;51.380;13.372;2022-07-01T07:03:57;12.43;;;10.27;;
68523;SDS011;55524;51.380;13.372;2022-07-01T07:06:24;13.15;;;9.88;;
68523;SDS011;55524;51.380;13.372;2022-07-01T07:08:50;9.88;;;8.75;;
68523;SDS011;55524;51.380;13.372;2022-07-01T07:11:16;12.23;;;9.50;;
68523;SDS011;55524;51.380;13.372;2022-07-01T07:13:44;11.13;;;8.55;;
68523;SDS011;55524;51.380;13.372;2022-07-01T07:16:11;11.15;;;8.00;;
68523;SDS011;55524;51.380;13.372;2022-07-01T07:18:37;13.20;;;7.72;;
68523;SDS011;55524;51.380;13.372;2022-07-01T07:21:04;8.45;;;7.00;;
68523;SDS011;55524;51.380;13.372;2022-07-01T07:23:30;8.05;;;6.72;;
68523;SDS011;55524;51.380;13.372;2022-07-01T07:25:56;7.18;;;6.47;;
68523;SDS011;55524;51.380;13.372;2022-07-01T07:28:23;7.40;;;6.15;;
68523;SDS011;55524;51.380;13.372;2022-07-01T07:30:49;7.40;;;6.03;;
68523;SDS011;55524;51.380;13.372;2022-07-01T07:33:15;6.03;;;5.50;;
68523;SDS011;55524;51.380;13.372;2022-07-01T07:35:41;12.45;;;5.10;;
68523;SDS011;55524;51.380;13.372;2022-07-01T07:38:08;5.72;;;5.00;;
68523;SDS011;55524;51.380;13.372;2022-07-01T07:40:35;8.50;;;4.78;;
68523;SDS011;55524;51.380;13.372;2022-07-01T07:43:01;6.38;;;4.50;;
68523;SDS011;55524;51.380;13.372;2022-07-01T07:45:28;6.75;;;4.80;;
68523;SDS011;55524;51.380;13.372;2022-07-01T07:47:55;5.20;;;4.68;;
68523;SDS011;55524;51.380;13.372;2022-07-01T07:50:21;5.05;;;4.55;;
68523;SDS011;55524;51.380;13.372;2022-07-01T07:52:48;5.38;;;4.40;;
68523;SDS011;55524;51.380;13.372;2022-07-01T07:55:14;6.20;;;4.45;;
68523;SDS011;55524;51.380;13.372;2022-07-01T07:57:40;5.43;;;4.53;;
68523;SDS011;55524;51.380;13.372;2022-07-01T08:00:07;5.30;;;4.55;;
68523;SDS011;55524;51.380;13.372;2022-07-01T08:02:35;6.07;;;4.07;;
68523;SDS011;55524;51.380;13.372;2022-07-01T08:05:02;6.15;;;5.50;;
68523;SDS011;55524;51.380;13.372;2022-07-01T08:07:29;6.97;;;6.15;;
68523;SDS011;55524;51.380;13.372;2022-07-01T08:09:55;7.35;;;5.78;;
68523;SDS011;55524;51.380;13.372;2022-07-01T08:12:21;6.43;;;5.93;;
68523;SDS011;55524;51.380;13.372;2022-07-01T08:14:51;5.35;;;4.88;;
68523;SDS011;55524;51.380;13.372;2022-07-01T08:17:17;7.28;;;4.70;;
68523;SDS011;55524;51.380;13.372;2022-07-01T08:19:44;5.07;;;4.60;;
68523;SDS011;55524;51.380;13.372;2022-07-01T08:22:10;4.80;;;4.40;;
68523;SDS011;55524;51.380;13.372;2022-07-01T08:24:36;5.68;;;5.18;;
68523;SDS011;55524;51.380;13.372;2022-07-01T08:27:02;7.88;;;7.07;;
68523;SDS011;55524;51.380;13.372;2022-07-01T08:29:29;8.05;;;6.85;;
68523;SDS011;55524;51.380;13.372;2022-07-01T08:31:55;7.75;;;6.93;;
68523;SDS011;55524;51.380;13.372;2022-07-01T08:34:21;7.88;;;7.15;;
68523;SDS011;55524;51.380;13.372;2022-07-01T08:36:48;8.38;;;7.45;;
68523;SDS011;55524;51.380;13.372;2022-07-01T08:39:14;10.85;;;7.15;;
68523;SDS011;55524;51.380;13.372;2022-07-01T08:41:40;8.93;;;8.10;;
68523;SDS011;55524;51.380;13.372;2022-07-01T08:44:07;8.30;;;7.50;;
68523;SDS011;55524;51.380;13.372;2022-07-01T08:46:34;8.57;;;7.80;;
68523;SDS011;55524;51.380;13.372;2022-07-01T08:49:00;15.55;;;10.57;;
68523;SDS011;55524;51.380;13.372;2022-07-01T08:51:27;13.23;;;10.02;;
68523;SDS011;55524;51.380;13.372;2022-07-01T08:53:54;11.63;;;10.38;;
68523;SDS011;55524;51.380;13.372;2022-07-01T08:56:20;19.20;;;11.07;;
68523;SDS011;55524;51.380;13.372;2022-07-01T08:59:04;15.82;;;13.07;;
68523;SDS011;55524;51.380;13.372;2022-07-01T09:01:31;15.95;;;10.80;;
68523;SDS011;55524;51.380;13.372;2022-07-01T09:04:12;12.95;;;9.15;;
68523;SDS011;55524;51.380;13.372;2022-07-01T09:06:43;14.82;;;8.60;;
68523;SDS011;55524;51.380;13.372;2022-07-01T09:09:11;15.68;;;9.23;;
68523;SDS011;55524;51.380;13.372;2022-07-01T09:11:52;9.10;;;8.20;;
68523;SDS011;55524;51.380;13.372;2022-07-01T09:14:20;9.85;;;8.43;;
68523;SDS011;55524;51.380;13.372;2022-07-01T09:16:49;11.88;;;8.40;;
68523;SDS011;55524;51.380;13.372;2022-07-01T09:19:18;9.55;;;8.00;;
68523;SDS011;55524;51.380;13.372;2022-07-01T09:24:23;9.00;;;6.90;;
68523;SDS011;55524;51.380;13.372;2022-07-01T09:26:53;6.80;;;6.20;;
68523;SDS011;55524;51.380;13.372;2022-07-01T09:29:30;6.20;;;5.65;;
68523;SDS011;55524;51.380;13.372;2022-07-01T09:32:03;5.63;;;5.13;;
68523;SDS011;55524;51.380;13.372;2022-07-01T09:34:52;4.82;;;4.10;;
68523;SDS011;55524;51.380;13.372;2022-07-01T09:37:19;5.15;;;3.40;;
68523;SDS011;55524;51.380;13.372;2022-07-01T09:39:47;3.92;;;1.95;;
68523;SDS011;55524;51.380;13.372;2022-07-01T09:42:15;1.50;;;1.40;;
68523;SDS011;55524;51.380;13.372;2022-07-01T09:44:56;1.95;;;1.35;;
68523;SDS011;55524;51.380;13.372;2022-07-01T09:47:23;2.72;;;1.50;;
68523;SDS011;55524;51.380;13.372;2022-07-01T09:49:53;1.80;;;1.70;;
68523;SDS011;55524;51.380;13.372;2022-07-01T09:52:20;2.63;;;1.30;;
68523;SDS011;55524;51.380;13.372;2022-07-01T09:54:47;1.40;;;1.30;;
68523;SDS011;55524;51.380;13.372;2022-07-01T09:57:17;1.88;;;1.20;;
68523;SDS011;55524;51.380;13.372;2022-07-01T09:59:45;3.70;;;1.40;;
68523;SDS011;55524;51.380;13.372;2022-07-01T10:02:12;1.92;;;1.35;;
68523;SDS011;55524;51.380;13.372;2022-07-01T10:04:40;1.50;;;1.40;;
68523;SDS011;55524;51.380;13.372;2022-07-01T10:12:43;1.42;;;1.23;;
68523;SDS011;55524;51.380;13.372;2022-07-01T10:15:17;1.67;;;1.38;;
68523;SDS011;55524;51.380;13.372;2022-07-01T10:17:45;3.70;;;1.52;;
68523;SDS011;55524;51.380;13.372;2022-07-01T10:20:14;1.50;;;1.40;;
68523;SDS011;55524;51.380;13.372;2022-07-01T10:22:42;5.07;;;1.70;;
68523;SDS011;55524;51.380;13.372;2022-07-01T10:30:53;2.22;;;1.55;;
68523;SDS011;55524;51.380;13.372;2022-07-01T10:33:26;7.30;;;2.30;;
68523;SDS011;55524;51.380;13.372;2022-07-01T10:36:19;10.45;;;2.15;;
68523;SDS011;55524;51.380;13.372;2022-07-01T10:44:09;2.40;;;2.20;;
68523;SDS011;55524;51.380;13.372;2022-07-01T10:49:16;3.97;;;2.17;;
68523;SDS011;55524;51.380;13.372;2022-07-01T11:04:58;2.42;;;1.20;;
68523;SDS011;55524;51.380;13.372;2022-07-01T11:07:34;8.48;;;1.60;;
68523;SDS011;55524;51.380;13.372;2022-07-01T11:10:05;9.18;;;1.75;;
68523;SDS011;55524;51.380;13.372;2022-07-01T11:12:33;4.32;;;1.20;;
68523;SDS011;55524;51.380;13.372;2022-07-01T11:15:00;2.50;;;1.27;;
68523;SDS011;55524;51.380;13.372;2022-07-01T11:17:30;1.50;;;1.40;;
68523;SDS011;55524;51.380;13.372;2022-07-01T11:19:59;1.77;;;1.27;;
68523;SDS011;55524;51.380;13.372;2022-07-01T11:22:32;1.45;;;1.00;;
68523;SDS011;55524;51.380;13.372;2022-07-01T11:25:00;1.20;;;0.82;;
68523;SDS011;55524;51.380;13.372;2022-07-01T11:27:29;1.20;;;1.10;;
68523;SDS011;55524;51.380;13.372;2022-07-01T11:29:56;1.20;;;1.10;;
68523;SDS011;55524;51.380;13.372;2022-07-01T11:32:28;1.23;;;0.85;;
68523;SDS011;55524;51.380;13.372;2022-07-01T11:34:56;0.80;;;0.80;;
68523;SDS011;55524;51.380;13.372;2022-07-01T11:37:31;1.85;;;1.00;;
68523;SDS011;55524;51.380;13.372;2022-07-01T11:40:16;1.15;;;1.10;;
68523;SDS011;55524;51.380;13.372;2022-07-01T11:42:44;2.05;;;1.40;;
68523;SDS011;55524;51.380;13.372;2022-07-01T11:45:23;2.83;;;1.45;;
68523;SDS011;55524;51.380;13.372;2022-07-01T11:47:51;1.52;;;1.50;;
68523;SDS011;55524;51.380;13.372;2022-07-01T11:50:18;1.38;;;1.38;;
68523;SDS011;55524;51.380;13.372;2022-07-01T11:52:45;1.30;;;1.30;;
68523;SDS011;55524;51.380;13.372;2022-07-01T11:55:11;3.55;;;1.55;;
68523;SDS011;55524;51.380;13.372;2022-07-01T11:57:37;2.70;;;1.40;;
68523;SDS011;55524;51.380;13.372;2022-07-01T12:00:11;2.17;;;2.08;;
68523;SDS011;55524;51.380;13.372;2022-07-01T12:02:38;1.67;;;1.60;;
68523;SDS011;55524;51.380;13.372;2022-07-01T12:05:05;1.70;;;1.60;;
68523;SDS011;55524;51.380;13.372;2022-07-01T12:07:32;2.00;;;1.90;;
68523;SDS011;55524;51.380;13.372;2022-07-01T12:09:58;3.60;;;2.10;;
68523;SDS011;55524;51.380;13.372;2022-07-01T12:12:26;2.90;;;2.70;;
68523;SDS011;55524;51.380;13.372;2022-07-01T12:14:56;2.60;;;2.40;;
68523;SDS011;55524;51.380;13.372;2022-07-01T12:17:24;5.40;;;2.90;;
68523;SDS011;55524;51.380;13.372;2022-07-01T12:19:53;5.60;;;2.70;;
68523;SDS011;55524;51.380;13.372;2022-07-01T12:22:24;3.40;;;3.10;;
68523;SDS011;55524;51.380;13.372;2022-07-01T12:25:08;3.88;;;3.58;;
68523;SDS011;55524;51.380;13.372;2022-07-01T12:27:41;3.22;;;3.03;;
68523;SDS011;55524;51.380;13.372;2022-07-01T12:30:09;4.03;;;3.20;;
68523;SDS011;55524;51.380;13.372;2022-07-01T12:32:39;4.32;;;3.95;;
68523;SDS011;55524;51.380;13.372;2022-07-01T12:35:08;4.55;;;4.13;;
68523;SDS011;55524;51.380;13.372;2022-07-01T12:37:55;4.85;;;4.53;;
68523;SDS011;55524;51.380;13.372;2022-07-01T12:40:22;19.40;;;5.07;;
68523;SDS011;55524;51.380;13.372;2022-07-01T12:42:50;15.00;;;5.07;;
68523;SDS011;55524;51.380;13.372;2022-07-01T12:45:17;5.78;;;4.60;;
68523;SDS011;55524;51.380;13.372;2022-07-01T12:47:49;7.88;;;4.85;;
68523;SDS011;55524;51.380;13.372;2022-07-01T12:58:03;4.68;;;4.20;;
68523;SDS011;55524;51.380;13.372;2022-07-01T13:00:31;4.75;;;4.30;;
68523;SDS011;55524;51.380;13.372;2022-07-01T13:02:59;4.75;;;3.88;;
68523;SDS011;55524;51.380;13.372;2022-07-01T13:05:27;4.65;;;4.25;;
68523;SDS011;55524;51.380;13.372;2022-07-01T13:07:55;4.47;;;3.92;;
68523;SDS011;55524;51.380;13.372;2022-07-01T13:10:21;3.90;;;3.60;;
68523;SDS011;55524;51.380;13.372;2022-07-01T13:12:48;3.95;;;3.65;;
68523;SDS011;55524;51.380;13.372;2022-07-01T13:15:15;4.13;;;3.83;;
68523;SDS011;55524;51.380;13.372;2022-07-01T13:17:43;5.10;;;4.70;;
68523;SDS011;55524;51.380;13.372;2022-07-01T13:20:11;5.40;;;5.00;;
68523;SDS011;55524;51.380;13.372;2022-07-01T13:22:38;5.13;;;4.80;;
68523;SDS011;55524;51.380;13.372;2022-07-01T13:25:05;5.93;;;4.28;;
68523;SDS011;55524;51.380;13.372;2022-07-01T13:27:32;6.40;;;4.55;;
68523;SDS011;55524;51.380;13.372;2022-07-01T13:29:59;5.63;;;5.13;;
68523;SDS011;55524;51.380;13.372;2022-07-01T13:32:27;5.45;;;5.05;;
68523;SDS011;55524;51.380;13.372;2022-07-01T13:34:54;5.55;;;5.15;;
68523;SDS011;55524;51.380;13.372;2022-07-01T13:37:25;5.35;;;4.95;;
68523;SDS011;55524;51.380;13.372;2022-07-01T13:39:51;6.07;;;5.28;;
68523;SDS011;55524;51.380;13.372;2022-07-01T13:42:18;5.75;;;5.30;;
68523;SDS011;55524;51.380;13.372;2022-07-01T13:44:44;5.57;;;5.05;;
68523;SDS011;55524;51.380;13.372;2022-07-01T13:47:10;7.60;;;4.15;;
68523;SDS011;55524;51.380;13.372;2022-07-01T13:49:39;4.70;;;4.40;;
68523;SDS011;55524;51.380;13.372;2022-07-01T13:52:07;4.47;;;4.18;;
68523;SDS011;55524;51.380;13.372;2022-07-01T13:54:34;4.07;;;3.78;;
68523;SDS011;55524;51.380;13.372;2022-07-01T13:57:00;4.13;;;3.83;;
68523;SDS011;55524;51.380;13.372;2022-07-01T13:59:27;4.28;;;3.33;;
68523;SDS011;55524;51.380;13.372;2022-07-01T14:01:53;3.42;;;3.15;;
68523;SDS011;55524;51.380;13.372;2022-07-01T14:04:20;3.80;;;3.13;;
68523;SDS011;55524;51.380;13.372;2022-07-01T14:06:46;3.17;;;2.80;;
68523;SDS011;55524;51.380;13.372;2022-07-01T14:09:12;3.17;;;2.60;;
68523;SDS011;55524;51.380;13.372;2022-07-01T14:11:39;2.47;;;2.30;;
68523;SDS011;55524;51.380;13.372;2022-07-01T14:14:05;2.75;;;2.10;;
68523;SDS011;55524;51.380;13.372;2022-07-01T14:16:31;2.05;;;1.95;;
68523;SDS011;55524;51.380;13.372;2022-07-01T14:18:58;2.10;;;2.00;;
68523;SDS011;55524;51.380;13.372;2022-07-01T14:21:24;1.65;;;1.60;;
68523;SDS011;55524;51.380;13.372;2022-07-01T14:23:50;1.80;;;1.70;;
68523;SDS011;55524;51.380;13.372;2022-07-01T14:26:17;1.75;;;1.60;;
68523;SDS011;55524;51.380;13.372;2022-07-01T14:28:43;1.98;;;1.42;;
68523;SDS011;55524;51.380;13.372;2022-07-01T14:31:09;1.50;;;1.40;;
68523;SDS011;55524;51.380;13.372;2022-07-01T14:33:36;3.17;;;1.42;;
68523;SDS011;55524;51.380;13.372;2022-07-01T14:36:02;2.35;;;1.38;;
68523;SDS011;55524;51.380;13.372;2022-07-01T14:38:29;1.35;;;1.23;;
68523;SDS011;55524;51.380;13.372;2022-07-01T14:40:55;2.10;;;1.90;;
68523;SDS011;55524;51.380;13.372;2022-07-01T14:43:22;1.85;;;1.75;;
68523;SDS011;55524;51.380;13.372;2022-07-01T14:45:48;2.08;;;1.98;;
68523;SDS011;55524;51.380;13.372;2022-07-01T14:48:14;3.33;;;1.95;;
68523;SDS011;55524;51.380;13.372;2022-07-01T14:50:40;2.53;;;2.42;;
68523;SDS011;55524;51.380;13.372;2022-07-01T14:53:07;3.65;;;2.30;;
68523;SDS011;55524;51.380;13.372;2022-07-01T14:55:34;3.05;;;2.33;;
68523;SDS011;55524;51.380;13.372;2022-07-01T14:58:00;2.47;;;2.33;;
68523;SDS011;55524;51.380;13.372;2022-07-01T15:00:26;2.35;;;2.13;;
68523;SDS011;55524;51.380;13.372;2022-07-01T15:02:54;2.67;;;2.45;;
68523;SDS011;55524;51.380;13.372;2022-07-01T15:05:21;3.17;;;2.97;;
68523;SDS011;55524;51.380;13.372;2022-07-01T15:07:48;3.50;;;3.17;;
68523;SDS011;55524;51.380;13.372;2022-07-01T15:10:14;2.75;;;2.55;;
68523;SDS011;55524;51.380;13.372;2022-07-01T15:12:41;4.13;;;2.63;;
68523;SDS011;55524;51.380;13.372;2022-07-01T15:15:07;6.95;;;3.67;;
68523;SDS011;55524;51.380;13.372;2022-07-01T15:17:40;3.33;;;2.75;;
68523;SDS011;55524;51.380;13.372;2022-07-01T15:20:08;2.40;;;2.20;;
68523;SDS011;55524;51.380;13.372;2022-07-01T15:22:35;2.47;;;2.22;;
68523;SDS011;55524;51.380;13.372;2022-07-01T15:25:01;2.50;;;2.35;;
68523;SDS011;55524;51.380;13.372;2022-07-01T15:27:27;2.67;;;2.47;;
68523;SDS011;55524;51.380;13.372;2022-07-01T15:29:54;2.78;;;2.58;;
68523;SDS011;55524;51.380;13.372;2022-07-01T15:32:20;2.60;;;2.40;;
68523;SDS011;55524;51.380;13.372;2022-07-01T15:34:46;2.80;;;2.60;;
68523;SDS011;55524;51.380;13.372;2022-07-01T15:37:12;2.90;;;2.53;;
68523;SDS011;55524;51.380;13.372;2022-07-01T15:39:39;2.65;;;2.45;;
68523;SDS011;55524;51.380;13.372;2022-07-01T15:42:05;2.97;;;2.78;;
68523;SDS011;55524;51.380;13.372;2022-07-01T15:44:32;3.42;;;2.70;;
68523;SDS011;55524;51.380;13.372;2022-07-01T15:46:59;7.55;;;2.90;;
68523;SDS011;55524;51.380;13.372;2022-07-01T15:49:48;4.28;;;2.97;;
68523;SDS011;55524;51.380;13.372;2022-07-01T15:52:14;3.03;;;2.83;;
68523;SDS011;55524;51.380;13.372;2022-07-01T15:54:40;4.20;;;2.60;;
68523;SDS011;55524;51.380;13.372;2022-07-01T15:57:07;3.55;;;2.80;;
68523;SDS011;55524;51.380;13.372;2022-07-01T15:59:33;3.28;;;2.97;;
68523;SDS011;55524;51.380;13.372;2022-07-01T16:01:59;4.45;;;3.17;;
68523;SDS011;55524;51.380;13.372;2022-07-01T16:04:32;4.95;;;3.00;;
68523;SDS011;55524;51.380;13.372;2022-07-01T16:07:06;4.63;;;3.20;;
68523;SDS011;55524;51.380;13.372;2022-07-01T16:09:39;4.82;;;4.13;;
68523;SDS011;55524;51.380;13.372;2022-07-01T16:12:07;4.13;;;3.70;;
68523;SDS011;55524;51.380;13.372;2022-07-01T16:14:34;4.65;;;4.22;;
68523;SDS011;55524;51.380;13.372;2022-07-01T16:17:04;5.25;;;4.75;;
68523;SDS011;55524;51.380;13.372;2022-07-01T16:19:34;6.65;;;3.88;;
68523;SDS011;55524;51.380;13.372;2022-07-01T16:22:02;5.00;;;4.15;;
68523;SDS011;55524;51.380;13.372;2022-07-01T16:24:29;8.20;;;4.07;;
68523;SDS011;55524;51.380;13.372;2022-07-01T16:26:56;4.93;;;4.20;;
68523;SDS011;55524;51.380;13.372;2022-07-01T16:29:22;4.53;;;3.80;;
68523;SDS011;55524;51.380;13.372;2022-07-01T16:31:50;5.57;;;4.05;;
68523;SDS011;55524;51.380;13.372;2022-07-01T16:34:16;6.47;;;4.28;;
68523;SDS011;55524;51.380;13.372;2022-07-01T16:36:44;5.10;;;4.15;;
68523;SDS011;55524;51.380;13.372;2022-07-01T16:39:19;8.63;;;4.35;;
68523;SDS011;55524;51.380;13.372;2022-07-01T16:44:28;4.47;;;4.07;;
68523;SDS011;55524;51.380;13.372;2022-07-01T16:47:04;5.28;;;4.78;;
68523;SDS011;55524;51.380;13.372;2022-07-01T16:49:32;8.38;;;4.72;;
68523;SDS011;55524;51.380;13.372;2022-07-01T16:52:08;6.38;;;4.47;;
68523;SDS011;55524;51.380;13.372;2022-07-01T16:54:36;4.70;;;4.30;;
68523;SDS011;55524;51.380;13.372;2022-07-01T16:59:40;5.13;;;4.68;;
68523;SDS011;55524;51.380;13.372;2022-07-01T17:02:06;4.93;;;4.03;;
68523;SDS011;55524;51.380;13.372;2022-07-01T17:04:32;9.45;;;5.60;;
68523;SDS011;55524;51.380;13.372;2022-07-01T17:07:00;5.88;;;3.92;;
68523;SDS011;55524;51.380;13.372;2022-07-01T17:09:28;17.02;;;5.40;;
68523;SDS011;55524;51.380;13.372;2022-07-01T17:11:55;16.38;;;4.70;;
68523;SDS011;55524;51.380;13.372;2022-07-01T17:14:23;7.53;;;3.97;;
68523;SDS011;55524;51.380;13.372;2022-07-01T17:16:51;22.23;;;5.60;;
68523;SDS011;55524;51.380;13.372;2022-07-01T17:19:17;5.65;;;4.50;;
68523;SDS011;55524;51.380;13.372;2022-07-01T17:21:45;5.38;;;4.68;;
68523;SDS011;55524;51.380;13.372;2022-07-01T17:24:15;5.88;;;5.30;;
68523;SDS011;55524;51.380;13.372;2022-07-01T17:26:47;7.05;;;4.93;;
68523;SDS011;55524;51.380;13.372;2022-07-01T17:29:18;6.68;;;4.72;;
68523;SDS011;55524;51.380;13.372;2022-07-01T17:34:23;6.25;;;5.38;;
68523;SDS011;55524;51.380;13.372;2022-07-01T17:36:51;8.20;;;5.60;;
68523;SDS011;55524;51.380;13.372;2022-07-01T17:39:19;9.45;;;5.63;;
68523;SDS011;55524;51.380;13.372;2022-07-01T17:44:19;13.88;;;5.80;;
68523;SDS011;55524;51.380;13.372;2022-07-01T17:46:47;7.18;;;5.30;;
68523;SDS011;55524;51.380;13.372;2022-07-01T17:49:18;10.35;;;5.32;;
68523;SDS011;55524;51.380;13.372;2022-07-01T17:51:46;6.15;;;5.55;;
68523;SDS011;55524;51.380;13.372;2022-07-01T17:54:13;7.68;;;5.32;;
68523;SDS011;55524;51.380;13.372;2022-07-01T17:56:41;9.25;;;5.45;;
68523;SDS011;55524;51.380;13.372;2022-07-01T17:59:08;13.10;;;6.07;;
68523;SDS011;55524;51.380;13.372;2022-07-01T18:01:38;7.82;;;6.13;;
68523;SDS011;55524;51.380;13.372;2022-07-01T18:04:06;8.07;;;5.88;;
68523;SDS011;55524;51.380;13.372;2022-07-01T18:06:33;11.18;;;6.28;;
68523;SDS011;55524;51.380;13.372;2022-07-01T18:09:00;7.45;;;6.60;;
68523;SDS011;55524;51.380;13.372;2022-07-01T18:14:21;8.55;;;6.78;;
68523;SDS011;55524;51.380;13.372;2022-07-01T18:17:15;9.05;;;6.78;;
68523;SDS011;55524;51.380;13.372;2022-07-01T18:22:24;12.75;;;7.88;;
68523;SDS011;55524;51.380;13.372;2022-07-01T18:24:51;9.70;;;7.45;;
68523;SDS011;55524;51.380;13.372;2022-07-01T18:27:22;14.13;;;7.82;;
68523;SDS011;55524;51.380;13.372;2022-07-01T18:29:55;10.15;;;7.15;;
68523;SDS011;55524;51.380;13.372;2022-07-01T18:32:31;11.95;;;8.00;;
68523;SDS011;55524;51.380;13.372;2022-07-01T18:35:01;9.35;;;7.07;;
68523;SDS011;55524;51.380;13.372;2022-07-01T18:37:48;11.70;;;7.93;;
68523;SDS011;55524;51.380;13.372;2022-07-01T18:40:18;10.82;;;7.80;;
68523;SDS011;55524;51.380;13.372;2022-07-01T18:42:45;10.00;;;7.55;;
68523;SDS011;55524;51.380;13.372;2022-07-01T18:45:12;12.52;;;8.77;;
68523;SDS011;55524;51.380;13.372;2022-07-01T18:47:39;9.77;;;8.30;;
68523;SDS011;55524;51.380;13.372;2022-07-01T18:50:06;10.90;;;8.25;;
68523;SDS011;55524;51.380;13.372;2022-07-01T18:52:34;9.65;;;7.45;;
68523;SDS011;55524;51.380;13.372;2022-07-01T18:55:00;12.20;;;7.75;;
68523;SDS011;55524;51.380;13.372;2022-07-01T18:57:32;11.30;;;7.75;;
68523;SDS011;55524;51.380;13.372;2022-07-01T19:00:00;10.55;;;8.25;;
68523;SDS011;55524;51.380;13.372;2022-07-01T19:02:28;11.23;;;7.72;;
68523;SDS011;55524;51.380;13.372;2022-07-01T19:04:54;12.27;;;7.97;;
68523;SDS011;55524;51.380;13.372;2022-07-01T19:07:20;10.73;;;7.63;;
68523;SDS011;55524;51.380;13.372;2022-07-01T19:09:46;10.90;;;7.57;;
68523;SDS011;55524;51.380;13.372;2022-07-01T19:12:13;9.20;;;7.45;;
68523;SDS011;55524;51.380;13.372;2022-07-01T19:14:42;11.10;;;7.72;;
68523;SDS011;55524;51.380;13.372;2022-07-01T19:17:08;9.30;;;7.57;;
68523;SDS011;55524;51.380;13.372;2022-07-01T19:19:34;11.20;;;7.88;;
68523;SDS011;55524;51.380;13.372;2022-07-01T19:22:01;9.13;;;7.70;;
68523;SDS011;55524;51.380;13.372;2022-07-01T19:24:28;11.65;;;7.28;;
68523;SDS011;55524;51.380;13.372;2022-07-01T19:26:55;8.30;;;7.38;;
68523;SDS011;55524;51.380;13.372;2022-07-01T19:29:21;8.82;;;6.90;;
68523;SDS011;55524;51.380;13.372;2022-07-01T19:31:48;10.05;;;6.47;;
68523;SDS011;55524;51.380;13.372;2022-07-01T19:34:14;7.63;;;5.93;;
68523;SDS011;55524;51.380;13.372;2022-07-01T19:36:40;9.73;;;7.15;;
68523;SDS011;55524;51.380;13.372;2022-07-01T19:39:06;8.48;;;6.68;;
68523;SDS011;55524;51.380;13.372;2022-07-01T19:41:33;8.38;;;6.47;;
68523;SDS011;55524;51.380;13.372;2022-07-01T19:43:59;8.07;;;6.97;;
68523;SDS011;55524;51.380;13.372;2022-07-01T19:46:30;9.25;;;6.22;;
68523;SDS011;55524;51.380;13.372;2022-07-01T19:51:27;8.65;;;7.63;;
68523;SDS011;55524;51.380;13.372;2022-07-01T19:53:55;7.88;;;7.10;;
68523;SDS011;55524;51.380;13.372;2022-07-01T19:56:21;10.85;;;7.05;;
68523;SDS011;55524;51.380;13.372;2022-07-01T19:58:49;11.13;;;7.25;;
68523;SDS011;55524;51.380;13.372;2022-07-01T20:01:15;8.57;;;7.55;;
68523;SDS011;55524;51.380;13.372;2022-07-01T20:03:42;11.43;;;8.90;;
68523;SDS011;55524;51.380;13.372;2022-07-01T20:06:08;11.02;;;8.38;;
68523;SDS011;55524;51.380;13.372;2022-07-01T20:08:35;12.23;;;8.50;;
68523;SDS011;55524;51.380;13.372;2022-07-01T20:11:01;13.82;;;9.40;;
68523;SDS011;55524;51.380;13.372;2022-07-01T20:13:29;12.63;;;8.65;;
68523;SDS011;55524;51.380;13.372;2022-07-01T20:15:55;14.15;;;9.48;;
68523;SDS011;55524;51.380;13.372;2022-07-01T20:18:22;13.07;;;9.75;;
68523;SDS011;55524;51.380;13.372;2022-07-01T20:20:53;13.05;;;10.30;;
68523;SDS011;55524;51.380;13.372;2022-07-01T20:23:20;13.13;;;10.93;;
68523;SDS011;55524;51.380;13.372;2022-07-01T20:25:46;12.82;;;11.30;;
68523;SDS011;55524;51.380;13.372;2022-07-01T20:28:13;14.38;;;11.02;;
68523;SDS011;55524;51.380;13.372;2022-07-01T20:30:41;17.30;;;11.95;;
68523;SDS011;55524;51.380;13.372;2022-07-01T20:33:07;16.38;;;12.18;;
68523;SDS011;55524;51.380;13.372;2022-07-01T20:35:34;16.25;;;12.55;;
68523;SDS011;55524;51.380;13.372;2022-07-01T20:38:00;17.30;;;13.10;;
68523;SDS011;55524;51.380;13.372;2022-07-01T20:40:26;16.05;;;11.82;;
68523;SDS011;55524;51.380;13.372;2022-07-01T20:42:52;19.92;;;11.73;;
68523;SDS011;55524;51.380;13.372;2022-07-01T20:45:19;18.70;;;11.95;;
68523;SDS011;55524;51.380;13.372;2022-07-01T20:47:45;17.25;;;12.05;;
68523;SDS011;55524;51.380;13.372;2022-07-01T20:50:11;18.52;;;12.25;;
68523;SDS011;55524;51.380;13.372;2022-07-01T20:52:39;16.95;;;12.68;;
68523;SDS011;55524;51.380;13.372;2022-07-01T20:55:05;19.77;;;13.55;;
68523;SDS011;55524;51.380;13.372;2022-07-01T20:57:32;22.90;;;12.75;;
68523;SDS011;55524;51.380;13.372;2022-07-01T20:59:58;19.05;;;12.57;;
68523;SDS011;55524;51.380;13.372;2022-07-01T21:02:25;21.38;;;12.88;;
68523;SDS011;55524;51.380;13.372;2022-07-01T21:04:54;18.20;;;13.00;;
68523;SDS011;55524;51.380;13.372;2022-07-01T21:07:21;17.52;;;12.63;;
68523;SDS011;55524;51.380;13.372;2022-07-01T21:09:47;18.10;;;12.57;;
68523;SDS011;55524;51.380;13.372;2022-07-01T21:12:13;19.48;;;13.23;;
68523;SDS011;55524;51.380;13.372;2022-07-01T21:14:39;14.82;;;11.70;;
68523;SDS011;55524;51.380;13.372;2022-07-01T21:17:06;17.85;;;13.25;;
68523;SDS011;55524;51.380;13.372;2022-07-01T21:19:32;18.80;;;12.98;;
68523;SDS011;55524;51.380;13.372;2022-07-01T21:21:58;17.65;;;12.23;;
68523;SDS011;55524;51.380;13.372;2022-07-01T21:24:27;18.98;;;12.27;;
68523;SDS011;55524;51.380;13.372;2022-07-01T21:26:54;19.23;;;12.80;;
68523;SDS011;55524;51.380;13.372;2022-07-01T21:29:20;18.17;;;12.27;;
68523;SDS011;55524;51.380;13.372;2022-07-01T21:31:47;21.13;;;12.38;;
68523;SDS011;55524;51.380;13.372;2022-07-01T21:34:13;17.50;;;12.55;;
68523;SDS011;55524;51.380;13.372;2022-07-01T21:36:40;19.80;;;12.70;;
68523;SDS011;55524;51.380;13.372;2022-07-01T21:39:06;17.27;;;11.77;;
68523;SDS011;55524;51.380;13.372;2022-07-01T21:41:33;21.63;;;12.82;;
68523;SDS011;55524;51.380;13.372;2022-07-01T21:44:02;22.95;;;12.60;;
68523;SDS011;55524;51.380;13.372;2022-07-01T21:46:31;20.73;;;12.18;;
68523;SDS011;55524;51.380;13.372;2022-07-01T21:48:59;18.90;;;11.77;;
68523;SDS011;55524;51.380;13.372;2022-07-01T21:51:26;17.38;;;11.35;;
68523;SDS011;55524;51.380;13.372;2022-07-01T21:53:53;19.95;;;11.65;;
68523;SDS011;55524;51.380;13.372;2022-07-01T21:56:21;17.08;;;11.98;;
68523;SDS011;55524;51.380;13.372;2022-07-01T21:58:49;22.42;;;11.60;;
68523;SDS011;55524;51.380;13.372;2022-07-01T22:01:17;16.63;;;12.15;;
68523;SDS011;55524;51.380;13.372;2022-07-01T22:03:44;24.27;;;11.20;;
68523;SDS011;55524;51.380;13.372;2022-07-01T22:06:11;17.35;;;11.30;;
68523;SDS011;55524;51.380;13.372;2022-07-01T22:08:41;19.13;;;11.40;;
68523;SDS011;55524;51.380;13.372;2022-07-01T22:11:08;19.48;;;11.02;;
68523;SDS011;55524;51.380;13.372;2022-07-01T22:16:25;19.00;;;10.98;;